Terminal Aerodrome Forecast
Issued by NWS Charleston, WV

Current Version | Previous Version | Graphics & Text | Print | Product List | Glossary On
Versions: 1 2 3 4 5 6 7 8 9 10 11 12 13 14 15 16 17 18 19 20 21 22
000
FTUS41 KRLX 150500
TAFPKB
TAF
KPKB 150536Z 1506/1606 25005KT P6SM BKN040
     FM150800 27009KT P6SM BKN035
     FM151000 29010G16KT 5SM -SHRA OVC023
     FM151100 30012G21KT 5SM -SHRA OVC014
     FM151300 31010G19KT P6SM OVC009
     FM151600 31009KT P6SM OVC015
     FM151700 31009KT P6SM BKN020
     FM152200 32010G16KT P6SM SCT025
     FM160300 33005KT P6SM SCT150=

USA.gov is the U.S. government's official web portal to all federal, state and local government web resources and services.